createdAt,value
2023-01-27T00:00:21.157Z,0
2023-01-27T00:01:21.342Z,0
2023-01-27T00:02:21.535Z,0
2023-01-27T00:03:21.852Z,0
2023-01-27T00:04:22.308Z,0
2023-01-27T00:05:22.466Z,0
2023-01-27T00:06:22.630Z,0
2023-01-27T00:07:22.925Z,0
2023-01-27T00:08:23.079Z,0
2023-01-27T00:09:23.253Z,0
2023-01-27T00:10:23.409Z,0
2023-01-27T00:11:23.607Z,0
2023-01-27T00:12:23.758Z,0
2023-01-27T00:13:23.920Z,0
2023-01-27T00:14:24.063Z,0
2023-01-27T00:15:24.203Z,0
2023-01-27T00:16:24.353Z,0
2023-01-27T00:17:24.516Z,0
2023-01-27T00:18:24.662Z,0
2023-01-27T00:19:24.820Z,0
2023-01-27T00:20:24.969Z,0
2023-01-27T00:21:25.123Z,0
2023-01-27T00:22:25.285Z,0
2023-01-27T00:23:25.431Z,0
2023-01-27T00:24:25.618Z,0
2023-01-27T00:25:25.879Z,0
2023-01-27T00:26:26.047Z,0
2023-01-27T00:27:26.220Z,0
2023-01-27T00:28:26.367Z,0
2023-01-27T00:29:26.508Z,0
2023-01-27T00:30:26.683Z,0
2023-01-27T00:31:26.899Z,0
2023-01-27T00:32:27.234Z,0
2023-01-27T00:33:27.411Z,0
2023-01-27T00:34:27.582Z,0
2023-01-27T00:35:27.734Z,0
2023-01-27T00:36:27.891Z,0
2023-01-27T00:37:28.040Z,0
2023-01-27T00:38:28.210Z,0
2023-01-27T00:39:28.378Z,0
2023-01-27T00:40:28.531Z,0
2023-01-27T00:41:28.696Z,0
2023-01-27T00:42:28.865Z,0
2023-01-27T00:43:29.013Z,0
2023-01-27T00:44:29.157Z,0
2023-01-27T00:45:29.322Z,0
2023-01-27T00:46:29.582Z,0
2023-01-27T00:47:29.941Z,0
2023-01-27T00:48:30.097Z,0
2023-01-27T00:49:30.250Z,0
2023-01-27T00:50:30.395Z,0
2023-01-27T00:51:30.576Z,0
2023-01-27T00:52:30.742Z,0
2023-01-27T00:53:30.907Z,0
2023-01-27T00:54:31.076Z,0
2023-01-27T00:55:31.225Z,0
2023-01-27T00:56:31.411Z,0
2023-01-27T00:57:31.604Z,0
2023-01-27T00:58:31.760Z,0
2023-01-27T00:59:31.916Z,0
2023-01-27T01:00:32.066Z,0
2023-01-27T01:01:32.255Z,0
2023-01-27T01:02:32.625Z,0
2023-01-27T01:03:32.993Z,0
2023-01-27T01:04:33.255Z,0
2023-01-27T01:05:33.438Z,0
2023-01-27T01:06:33.668Z,0
2023-01-27T01:07:33.858Z,0
2023-01-27T01:08:34.092Z,0
2023-01-27T01:09:34.253Z,0
2023-01-27T01:10:34.519Z,0
2023-01-27T01:11:34.686Z,0
2023-01-27T01:12:34.943Z,0
2023-01-27T01:13:35.116Z,0
2023-01-27T01:14:35.346Z,0
2023-01-27T01:15:35.512Z,0
2023-01-27T01:16:35.746Z,0
2023-01-27T01:17:35.895Z,0
2023-01-27T01:18:36.161Z,0
2023-01-27T01:19:36.368Z,0
2023-01-27T01:20:36.599Z,0
2023-01-27T01:21:36.782Z,0
2023-01-27T01:22:37.036Z,0
2023-01-27T01:23:37.181Z,0
2023-01-27T01:24:37.416Z,0
2023-01-27T01:25:37.580Z,0
2023-01-27T01:26:37.825Z,0
2023-01-27T01:27:37.979Z,0
2023-01-27T01:28:38.209Z,0
2023-01-27T01:29:38.378Z,0
2023-01-27T01:30:38.649Z,0
2023-01-27T01:31:38.902Z,0
2023-01-27T01:32:39.404Z,0
2023-01-27T01:33:39.562Z,0
2023-01-27T01:34:39.713Z,0
2023-01-27T01:35:39.861Z,0
2023-01-27T01:36:40.004Z,0
2023-01-27T01:37:40.180Z,0
2023-01-27T01:38:40.354Z,0
2023-01-27T01:39:40.545Z,0
2023-01-27T01:40:40.775Z,0
2023-01-27T01:41:40.926Z,0
2023-01-27T01:42:41.149Z,0
2023-01-27T01:43:41.338Z,0
2023-01-27T01:44:41.631Z,0
2023-01-27T01:45:41.789Z,0
2023-01-27T01:46:42.086Z,0
2023-01-27T01:47:42.371Z,0
2023-01-27T01:48:42.609Z,0
2023-01-27T01:49:42.813Z,0
2023-01-27T01:50:42.968Z,0
2023-01-27T01:51:43.147Z,0
2023-01-27T01:52:43.313Z,0
2023-01-27T01:53:43.476Z,0
2023-01-27T01:54:43.697Z,0
2023-01-27T01:55:43.886Z,0
2023-01-27T01:56:44.420Z,0
2023-01-27T01:57:44.573Z,0
2023-01-27T01:58:44.962Z,0
2023-01-27T01:59:45.762Z,0
2023-01-27T02:00:45.925Z,0
2023-01-27T02:01:46.088Z,0
2023-01-27T02:02:46.303Z,0
2023-01-27T02:03:46.653Z,0
2023-01-27T02:04:46.798Z,0
2023-01-27T02:05:46.949Z,0
2023-01-27T02:06:47.104Z,0
2023-01-27T02:07:47.269Z,0
2023-01-27T02:08:47.420Z,0
2023-01-27T02:09:47.580Z,0
2023-01-27T02:10:47.748Z,0
2023-01-27T02:11:47.962Z,0
2023-01-27T02:12:48.109Z,0
2023-01-27T02:13:48.268Z,0
2023-01-27T02:14:48.416Z,0
2023-01-27T02:15:48.586Z,0
2023-01-27T02:16:48.799Z,0
2023-01-27T02:17:49.262Z,0
2023-01-27T02:18:49.420Z,0
2023-01-27T02:19:49.580Z,0
2023-01-27T02:20:49.729Z,0
2023-01-27T02:21:49.887Z,0
2023-01-27T02:22:50.061Z,0
2023-01-27T02:23:50.247Z,0
2023-01-27T02:24:50.608Z,0
2023-01-27T02:25:51.150Z,0
2023-01-27T02:26:51.295Z,0
2023-01-27T02:27:51.454Z,0
2023-01-27T02:28:51.609Z,0
2023-01-27T02:29:51.767Z,0
2023-01-27T02:30:52.026Z,0
2023-01-27T02:31:52.517Z,0
2023-01-27T02:32:52.923Z,0
2023-01-27T02:33:53.076Z,0
2023-01-27T02:34:53.237Z,0
2023-01-27T02:35:53.399Z,0
2023-01-27T02:36:53.555Z,0
2023-01-27T02:37:53.712Z,0
2023-01-27T02:38:53.875Z,0
2023-01-27T02:39:54.031Z,0
2023-01-27T02:40:54.191Z,0
2023-01-27T02:41:54.342Z,0
2023-01-27T02:42:54.549Z,0
2023-01-27T02:43:54.709Z,0
2023-01-27T02:44:54.863Z,0
2023-01-27T02:45:55.184Z,0
2023-01-27T02:46:55.519Z,0
2023-01-27T02:47:55.676Z,0
2023-01-27T02:48:55.843Z,0
2023-01-27T02:49:55.997Z,0
2023-01-27T02:50:56.179Z,0
2023-01-27T02:51:56.325Z,0
2023-01-27T02:52:56.504Z,0
2023-01-27T02:53:56.669Z,0
2023-01-27T02:54:56.828Z,0
2023-01-27T02:55:56.993Z,0
2023-01-27T02:56:57.149Z,0
2023-01-27T02:57:57.315Z,0
2023-01-27T02:58:57.703Z,0
2023-01-27T02:59:57.865Z,0
2023-01-27T03:00:58.023Z,0
2023-01-27T03:01:58.195Z,0
2023-01-27T03:02:58.354Z,0
2023-01-27T03:03:58.517Z,0
2023-01-27T03:04:58.668Z,0
2023-01-27T03:05:58.851Z,0
2023-01-27T03:06:58.995Z,0
2023-01-27T03:07:59.144Z,0
2023-01-27T03:08:59.295Z,0
2023-01-27T03:09:59.451Z,0
2023-01-27T03:10:59.597Z,0
2023-01-27T03:11:59.746Z,0
2023-01-27T03:12:59.921Z,0
2023-01-27T03:14:00.138Z,0
2023-01-27T03:15:00.300Z,0
2023-01-27T03:16:00.683Z,0
2023-01-27T03:17:01.042Z,0
2023-01-27T03:18:01.211Z,0
2023-01-27T03:19:01.358Z,0
2023-01-27T03:20:01.502Z,0
2023-01-27T03:21:01.735Z,0
2023-01-27T03:22:01.982Z,0
2023-01-27T03:23:02.178Z,0
2023-01-27T03:24:02.418Z,0
2023-01-27T03:25:02.746Z,0
2023-01-27T03:26:02.939Z,0
2023-01-27T03:27:03.110Z,0
2023-01-27T03:28:03.285Z,0
2023-01-27T03:29:03.609Z,0
2023-01-27T03:30:03.798Z,0
2023-01-27T03:31:04.091Z,0
2023-01-27T03:32:04.527Z,0
2023-01-27T03:33:04.704Z,0
2023-01-27T03:34:04.860Z,0
2023-01-27T03:35:05.798Z,0
2023-01-27T03:36:05.947Z,0
2023-01-27T03:37:06.093Z,0
2023-01-27T03:38:06.266Z,0
2023-01-27T03:39:06.459Z,0
2023-01-27T03:40:06.608Z,0
2023-01-27T03:41:06.773Z,0
2023-01-27T03:42:06.929Z,0
2023-01-27T03:43:07.090Z,0
2023-01-27T03:44:07.249Z,0
2023-01-27T03:45:07.405Z,0
2023-01-27T03:46:07.586Z,0
2023-01-27T03:47:07.866Z,0
2023-01-27T03:48:08.046Z,0
2023-01-27T03:49:08.223Z,0
2023-01-27T03:50:08.375Z,0
2023-01-27T03:51:08.548Z,0
2023-01-27T03:52:08.715Z,0
2023-01-27T03:53:08.872Z,0
2023-01-27T03:54:09.021Z,0
2023-01-27T03:55:09.251Z,0
2023-01-27T03:56:09.439Z,0
2023-01-27T03:57:09.609Z,0
2023-01-27T03:58:09.766Z,0
2023-01-27T03:59:09.943Z,0
2023-01-27T04:00:10.098Z,0
2023-01-27T04:01:10.322Z,0
2023-01-27T04:02:10.649Z,0
2023-01-27T04:03:10.793Z,0
2023-01-27T04:04:11.083Z,0
2023-01-27T04:05:11.678Z,0
2023-01-27T04:06:13.040Z,0
2023-01-27T04:07:13.212Z,0
2023-01-27T04:08:13.372Z,0
2023-01-27T04:09:13.548Z,0
2023-01-27T04:10:13.711Z,0
2023-01-27T04:11:13.863Z,0
2023-01-27T04:12:13.997Z,0
2023-01-27T04:13:14.145Z,0
2023-01-27T04:14:14.351Z,0
2023-01-27T04:15:14.798Z,0
2023-01-27T04:16:15.682Z,0
2023-01-27T04:17:15.926Z,0
2023-01-27T04:18:16.099Z,0
2023-01-27T04:19:16.250Z,0
2023-01-27T04:20:16.405Z,0
2023-01-27T04:21:16.569Z,0
2023-01-27T04:22:16.725Z,0
2023-01-27T04:23:16.884Z,0
2023-01-27T04:24:17.086Z,0
2023-01-27T04:25:18.125Z,0
2023-01-27T04:26:19.372Z,0
2023-01-27T04:27:19.518Z,0
2023-01-27T04:28:33.330Z,0
2023-01-27T04:29:45.123Z,0
2023-01-27T04:30:45.317Z,0
2023-01-27T04:31:45.597Z,0
2023-01-27T04:32:45.873Z,0
2023-01-27T04:33:46.713Z,0
2023-01-27T04:34:46.864Z,0
2023-01-27T04:35:47.014Z,0
2023-01-27T04:36:47.159Z,0
2023-01-27T04:37:47.350Z,0
2023-01-27T04:38:47.500Z,0
2023-01-27T04:39:47.670Z,0
2023-01-27T04:40:47.850Z,0
2023-01-27T04:41:48.228Z,0
2023-01-27T04:42:48.357Z,0
2023-01-27T04:43:48.497Z,0
2023-01-27T04:44:48.671Z,0
2023-01-27T04:45:48.872Z,0
2023-01-27T04:46:49.151Z,0
2023-01-27T04:47:49.327Z,0
2023-01-27T04:48:49.493Z,0
2023-01-27T04:49:49.700Z,0
2023-01-27T04:50:49.855Z,0
2023-01-27T04:51:50.021Z,0
2023-01-27T04:52:50.224Z,0
2023-01-27T04:53:50.370Z,0
2023-01-27T04:54:50.536Z,0
2023-01-27T04:55:50.691Z,0
2023-01-27T04:56:50.841Z,0
2023-01-27T04:57:51.304Z,0
2023-01-27T04:58:51.454Z,0
2023-01-27T04:59:51.624Z,0
2023-01-27T05:00:51.779Z,0
2023-01-27T05:01:52.143Z,0
2023-01-27T05:02:52.717Z,0
2023-01-27T05:03:52.972Z,0
2023-01-27T05:04:53.331Z,0
2023-01-27T05:05:53.484Z,0
2023-01-27T05:06:53.646Z,0
2023-01-27T05:07:53.837Z,0
2023-01-27T05:08:53.987Z,0
2023-01-27T05:09:54.125Z,0
2023-01-27T05:10:54.296Z,0
2023-01-27T05:11:54.447Z,0
2023-01-27T05:12:54.630Z,0
2023-01-27T05:13:54.790Z,0
2023-01-27T05:14:54.948Z,0
2023-01-27T05:15:55.125Z,0
2023-01-27T05:16:55.489Z,0
2023-01-27T05:17:56.037Z,0
2023-01-27T05:18:56.393Z,0
2023-01-27T05:19:56.543Z,0
2023-01-27T05:20:56.724Z,0
2023-01-27T05:21:56.882Z,0
2023-01-27T05:22:57.104Z,0
2023-01-27T05:23:57.713Z,0
2023-01-27T05:24:58.144Z,0
2023-01-27T05:25:58.757Z,0
2023-01-27T05:26:59.139Z,0
2023-01-27T05:27:59.436Z,0
2023-01-27T05:28:59.654Z,0
2023-01-27T05:29:59.833Z,0
2023-01-27T05:31:00.103Z,0
2023-01-27T05:32:00.972Z,0
2023-01-27T05:33:01.393Z,0
2023-01-27T05:34:01.573Z,0
2023-01-27T05:35:01.754Z,0
2023-01-27T05:36:02.086Z,0
2023-01-27T05:37:02.270Z,0
2023-01-27T05:38:02.421Z,0
2023-01-27T05:39:02.724Z,0
2023-01-27T05:40:02.886Z,0
2023-01-27T05:41:03.063Z,0
2023-01-27T05:42:03.252Z,0
2023-01-27T05:43:03.402Z,0
2023-01-27T05:44:03.558Z,0
2023-01-27T05:45:04.014Z,0
2023-01-27T05:46:04.362Z,0
2023-01-27T05:47:04.820Z,0
2023-01-27T05:48:05.005Z,0
2023-01-27T05:49:05.163Z,0
2023-01-27T05:50:05.412Z,0
2023-01-27T05:51:05.618Z,0
2023-01-27T05:52:05.782Z,0
2023-01-27T05:53:05.939Z,0
2023-01-27T05:54:06.085Z,0
2023-01-27T05:55:06.246Z,0
2023-01-27T05:56:06.392Z,0
2023-01-27T05:57:06.542Z,0
2023-01-27T05:58:06.711Z,0
2023-01-27T05:59:06.896Z,0
2023-01-27T06:00:07.064Z,0
2023-01-27T06:01:07.235Z,0
2023-01-27T06:02:07.405Z,0
2023-01-27T06:03:07.700Z,0
2023-01-27T06:04:08.058Z,0
2023-01-27T06:05:08.211Z,0
2023-01-27T06:06:08.380Z,0
2023-01-27T06:07:08.546Z,0
2023-01-27T06:08:08.693Z,0
2023-01-27T06:09:08.889Z,0
2023-01-27T06:10:09.054Z,0
2023-01-27T06:11:09.219Z,0
2023-01-27T06:12:09.380Z,0
2023-01-27T06:13:09.537Z,0
2023-01-27T06:14:09.677Z,0
2023-01-27T06:15:09.840Z,0
2023-01-27T06:16:10.032Z,0
2023-01-27T06:17:10.288Z,0
2023-01-27T06:18:10.453Z,0
2023-01-27T06:19:10.597Z,0
2023-01-27T06:20:10.836Z,0
2023-01-27T06:21:10.992Z,0
2023-01-27T06:22:11.418Z,0
2023-01-27T06:23:11.580Z,0
2023-01-27T06:24:12.750Z,0
2023-01-27T06:25:14.408Z,0
2023-01-27T06:26:15.951Z,0
2023-01-27T06:27:16.094Z,0
2023-01-27T06:28:28.026Z,0
2023-01-27T06:29:30.426Z,0
2023-01-27T06:30:30.584Z,0
2023-01-27T06:31:30.823Z,0
2023-01-27T06:32:31.053Z,0
2023-01-27T06:33:31.204Z,0
2023-01-27T06:34:31.369Z,0
2023-01-27T06:35:31.525Z,0
2023-01-27T06:36:31.671Z,0
2023-01-27T06:37:31.813Z,2
2023-01-27T06:38:31.964Z,3
2023-01-27T06:39:32.108Z,4
2023-01-27T06:40:32.261Z,5
2023-01-27T06:41:32.428Z,6
2023-01-27T06:42:32.579Z,7
2023-01-27T06:43:32.736Z,8
2023-01-27T06:44:32.903Z,9
2023-01-27T06:45:33.072Z,9
2023-01-27T06:46:33.333Z,10
2023-01-27T06:47:33.701Z,11
2023-01-27T06:48:33.845Z,11
2023-01-27T06:49:34.140Z,13
2023-01-27T06:50:34.354Z,13
2023-01-27T06:51:34.572Z,15
2023-01-27T06:52:34.718Z,15
2023-01-27T06:53:34.963Z,15
2023-01-27T06:54:35.221Z,17
2023-01-27T06:55:35.410Z,19
2023-01-27T06:56:35.568Z,21
2023-01-27T06:57:36.142Z,24
2023-01-27T06:58:36.325Z,24
2023-01-27T06:59:36.603Z,27
2023-01-27T07:00:36.746Z,27
2023-01-27T07:01:36.965Z,27
2023-01-27T07:02:37.249Z,27
2023-01-27T07:03:37.706Z,30
2023-01-27T07:04:37.899Z,30
2023-01-27T07:05:38.097Z,30
2023-01-27T07:06:38.440Z,33
2023-01-27T07:07:38.616Z,33
2023-01-27T07:08:38.815Z,33
2023-01-27T07:09:51.653Z,33
2023-01-27T07:10:53.256Z,35
2023-01-27T07:11:53.460Z,37
2023-01-27T07:12:53.843Z,37
2023-01-27T07:13:54.008Z,37
2023-01-27T07:14:54.185Z,41
2023-01-27T07:15:54.388Z,41
2023-01-27T07:16:55.019Z,47
2023-01-27T07:17:55.192Z,52
2023-01-27T07:18:55.368Z,58
2023-01-27T07:19:55.584Z,64
2023-01-27T07:20:55.756Z,64
2023-01-27T07:21:55.962Z,71
2023-01-27T07:22:56.143Z,71
2023-01-27T07:23:56.417Z,71
2023-01-27T07:24:56.689Z,71
2023-01-27T07:25:57.304Z,71
2023-01-27T07:27:01.150Z,79
2023-01-27T07:28:01.339Z,88
2023-01-27T07:29:01.566Z,98.96
2023-01-27T07:30:01.737Z,110
2023-01-27T07:31:01.980Z,110
2023-01-27T07:32:02.313Z,110
2023-01-27T07:33:02.682Z,110
2023-01-27T07:34:02.907Z,130
2023-01-27T07:35:03.087Z,130
2023-01-27T07:36:03.280Z,150
2023-01-27T07:37:03.485Z,169.92
2023-01-27T07:38:03.840Z,189.92
2023-01-27T07:39:04.019Z,209.92
2023-01-27T07:40:04.183Z,240
2023-01-27T07:41:04.351Z,269.92
2023-01-27T07:42:04.514Z,300
2023-01-27T07:43:04.682Z,300
2023-01-27T07:44:04.913Z,300
2023-01-27T07:45:05.118Z,300
2023-01-27T07:46:05.357Z,269.92
2023-01-27T07:47:05.645Z,240
2023-01-27T07:48:05.828Z,240
2023-01-27T07:49:06.006Z,240
2023-01-27T07:50:06.170Z,240
2023-01-27T07:51:06.339Z,240
2023-01-27T07:52:06.520Z,269.92
2023-01-27T07:53:06.688Z,300
2023-01-27T07:54:06.881Z,329.92
2023-01-27T07:55:07.095Z,329.92
2023-01-27T07:56:07.274Z,329.92
2023-01-27T07:57:07.555Z,369.92
2023-01-27T07:58:07.711Z,409.92
2023-01-27T07:59:07.877Z,459.84
2023-01-27T08:00:08.065Z,459.84
2023-01-27T08:01:08.273Z,509.76
2023-01-27T08:02:08.633Z,509.76
2023-01-27T08:03:08.833Z,509.76
2023-01-27T08:04:09.142Z,509.76
2023-01-27T08:05:09.312Z,569.92
2023-01-27T08:06:09.485Z,569.92
2023-01-27T08:07:09.659Z,569.92
2023-01-27T08:08:09.824Z,569.92
2023-01-27T08:09:10.026Z,569.92
2023-01-27T08:10:10.280Z,569.92
2023-01-27T08:11:11.337Z,569.92
2023-01-27T08:12:11.496Z,569.92
2023-01-27T08:13:11.717Z,569.92
2023-01-27T08:14:12.059Z,569.92
2023-01-27T08:15:12.247Z,549.76
2023-01-27T08:16:12.448Z,489.92
2023-01-27T08:17:12.774Z,440
2023-01-27T08:18:12.965Z,440
2023-01-27T08:19:13.137Z,389.76
2023-01-27T08:20:13.688Z,389.76
2023-01-27T08:21:15.199Z,349.76
2023-01-27T08:22:15.375Z,349.76
2023-01-27T08:23:15.537Z,309.92
2023-01-27T08:24:15.722Z,309.92
2023-01-27T08:25:15.994Z,309.92
2023-01-27T08:26:16.164Z,269.92
2023-01-27T08:27:16.354Z,269.92
2023-01-27T08:28:16.520Z,240
2023-01-27T08:29:16.696Z,209.92
2023-01-27T08:30:16.891Z,209.92
2023-01-27T08:31:17.112Z,180
2023-01-27T08:32:17.454Z,180
2023-01-27T08:33:17.619Z,180
2023-01-27T08:34:17.782Z,180
2023-01-27T08:35:18.013Z,160
2023-01-27T08:36:18.236Z,160
2023-01-27T08:37:18.440Z,160
2023-01-27T08:38:18.599Z,180
2023-01-27T08:39:18.762Z,180
2023-01-27T08:40:18.961Z,200
2023-01-27T08:41:19.124Z,200
2023-01-27T08:42:19.286Z,220
2023-01-27T08:43:19.460Z,220
2023-01-27T08:44:19.658Z,220
2023-01-27T08:45:19.827Z,249.92
2023-01-27T08:46:20.059Z,249.92
2023-01-27T08:47:20.443Z,249.92
2023-01-27T08:48:20.606Z,280
2023-01-27T08:49:20.810Z,280
2023-01-27T08:50:20.973Z,280
2023-01-27T08:51:21.141Z,249.92
2023-01-27T08:52:21.341Z,249.92
2023-01-27T08:53:21.505Z,249.92
2023-01-27T08:54:21.676Z,249.92
2023-01-27T08:55:21.857Z,249.92
2023-01-27T08:56:22.030Z,309.92
2023-01-27T08:57:22.217Z,349.76
2023-01-27T08:58:22.371Z,389.76
2023-01-27T08:59:22.537Z,429.76
2023-01-27T09:00:22.699Z,429.76
2023-01-27T09:01:22.900Z,429.76
2023-01-27T09:02:23.182Z,429.76
2023-01-27T09:03:23.353Z,480
2023-01-27T09:04:23.559Z,480
2023-01-27T09:05:23.838Z,480
2023-01-27T09:06:24.016Z,480
2023-01-27T09:07:24.190Z,480
2023-01-27T09:08:24.390Z,529.92
2023-01-27T09:09:24.579Z,529.92
2023-01-27T09:10:25.150Z,529.92
2023-01-27T09:11:26.185Z,529.92
2023-01-27T09:12:26.352Z,529.92
2023-01-27T09:13:26.623Z,529.92
2023-01-27T09:14:26.803Z,529.92
2023-01-27T09:15:27.005Z,529.92
2023-01-27T09:16:27.221Z,469.76
2023-01-27T09:17:27.676Z,469.76
2023-01-27T09:18:27.858Z,469.76
2023-01-27T09:19:28.034Z,419.84
2023-01-27T09:20:28.207Z,419.84
2023-01-27T09:21:28.373Z,419.84
2023-01-27T09:22:28.538Z,419.84
2023-01-27T09:23:28.731Z,419.84
2023-01-27T09:24:28.935Z,419.84
2023-01-27T09:25:29.258Z,419.84
2023-01-27T09:26:29.457Z,419.84
2023-01-27T09:27:38.601Z,419.84
2023-01-27T09:28:40.542Z,480
2023-01-27T09:29:40.712Z,520
2023-01-27T09:30:41.269Z,579.84
2023-01-27T09:31:41.750Z,579.84
2023-01-27T09:32:42.308Z,579.84
2023-01-27T09:33:42.473Z,579.84
2023-01-27T09:34:42.647Z,579.84
2023-01-27T09:35:42.826Z,579.84
2023-01-27T09:36:42.998Z,579.84
2023-01-27T09:37:43.172Z,579.84
2023-01-27T09:38:43.576Z,579.84
2023-01-27T09:39:43.752Z,579.84
2023-01-27T09:40:43.924Z,619.84
2023-01-27T09:41:44.093Z,619.84
2023-01-27T09:42:44.271Z,619.84
2023-01-27T09:43:44.446Z,619.84
2023-01-27T09:44:44.635Z,619.84
2023-01-27T09:45:44.829Z,619.84
2023-01-27T09:46:45.011Z,619.84
2023-01-27T09:47:45.192Z,619.84
2023-01-27T09:48:45.360Z,619.84
2023-01-27T09:49:45.529Z,619.84
2023-01-27T09:50:45.726Z,549.76
2023-01-27T09:51:45.910Z,549.76
2023-01-27T09:52:48.011Z,549.76
2023-01-27T09:53:48.568Z,549.76
2023-01-27T09:54:48.781Z,549.76
2023-01-27T09:55:48.968Z,549.76
2023-01-27T09:56:49.138Z,549.76
2023-01-27T09:57:49.326Z,609.92
2023-01-27T09:58:49.504Z,609.92
2023-01-27T09:59:49.682Z,609.92
2023-01-27T10:00:49.900Z,609.92
2023-01-27T10:01:50.089Z,679.68
2023-01-27T10:02:50.456Z,679.68
2023-01-27T10:03:50.619Z,679.68
2023-01-27T10:04:50.844Z,749.44
2023-01-27T10:05:51.154Z,749.44
2023-01-27T10:06:51.339Z,749.44
2023-01-27T10:07:51.514Z,749.44
2023-01-27T10:08:51.701Z,749.44
2023-01-27T10:09:51.885Z,749.44
2023-01-27T10:10:52.061Z,829.44
2023-01-27T10:11:52.243Z,829.44
2023-01-27T10:12:52.431Z,919.68
2023-01-27T10:13:52.610Z,919.68
2023-01-27T10:14:52.805Z,1019.52
2023-01-27T10:15:52.973Z,1139.84
2023-01-27T10:16:53.261Z,1139.84
2023-01-27T10:17:53.459Z,1139.84
2023-01-27T10:18:53.639Z,1139.84
2023-01-27T10:19:53.801Z,1139.84
2023-01-27T10:20:53.964Z,1259.52
2023-01-27T10:21:54.147Z,1259.52
2023-01-27T10:22:54.353Z,1259.52
2023-01-27T10:23:54.539Z,1259.52
2023-01-27T10:24:54.840Z,1259.52
2023-01-27T10:25:55.009Z,1259.52
2023-01-27T10:26:55.168Z,1259.52
2023-01-27T10:27:55.353Z,1259.52
2023-01-27T10:28:55.552Z,1259.52
2023-01-27T10:29:55.741Z,1259.52
2023-01-27T10:30:55.966Z,1239.68
2023-01-27T10:31:56.445Z,1239.68
2023-01-27T10:32:56.866Z,1239.68
2023-01-27T10:33:57.036Z,1239.68
2023-01-27T10:34:57.199Z,1239.68
2023-01-27T10:35:57.372Z,1239.68
2023-01-27T10:36:57.552Z,1239.68
2023-01-27T10:37:57.726Z,1239.68
2023-01-27T10:38:57.915Z,1239.68
2023-01-27T10:39:58.079Z,1239.68
2023-01-27T10:40:58.245Z,1219.84
2023-01-27T10:41:58.438Z,1219.84
2023-01-27T10:42:58.625Z,1219.84
2023-01-27T10:43:58.819Z,1219.84
2023-01-27T10:44:58.995Z,1219.84
2023-01-27T10:45:59.182Z,1219.84
2023-01-27T10:46:59.611Z,1219.84
2023-01-27T10:48:00.088Z,1219.84
2023-01-27T10:49:00.300Z,1219.84
2023-01-27T10:50:00.478Z,1359.36
2023-01-27T10:51:00.683Z,1359.36
2023-01-27T10:52:00.869Z,1359.36
2023-01-27T10:53:01.041Z,1359.36
2023-01-27T10:54:01.216Z,1359.36
2023-01-27T10:55:01.382Z,1359.36
2023-01-27T10:56:01.580Z,1498.88
2023-01-27T10:57:01.748Z,1498.88
2023-01-27T10:58:01.921Z,1498.88
2023-01-27T10:59:02.952Z,1498.88
2023-01-27T11:00:57.728Z,1498.88
2023-01-27T11:02:22.591Z,1479.68
2023-01-27T11:03:22.931Z,1479.68
2023-01-27T11:04:23.189Z,1479.68
2023-01-27T11:05:23.444Z,1619.2
2023-01-27T11:06:23.608Z,1619.2
2023-01-27T11:07:23.801Z,1619.2
2023-01-27T11:08:24.027Z,1619.2
2023-01-27T11:09:24.229Z,1619.2
2023-01-27T11:10:24.408Z,1619.2
2023-01-27T11:11:24.573Z,1619.2
2023-01-27T11:12:24.738Z,1619.2
2023-01-27T11:13:24.905Z,1619.2
2023-01-27T11:14:25.077Z,1619.2
2023-01-27T11:15:25.245Z,1498.88
2023-01-27T11:16:25.446Z,1498.88
2023-01-27T11:17:25.779Z,1498.88
2023-01-27T11:18:25.959Z,1498.88
2023-01-27T11:19:26.154Z,1498.88
2023-01-27T11:20:26.316Z,1338.88
2023-01-27T11:21:26.522Z,1338.88
2023-01-27T11:22:26.726Z,1338.88
2023-01-27T11:23:26.927Z,1338.88
2023-01-27T11:24:27.149Z,1338.88
2023-01-27T11:25:27.479Z,1338.88
2023-01-27T11:26:27.658Z,1338.88
2023-01-27T11:27:27.835Z,1338.88
2023-01-27T11:28:28.009Z,1338.88
2023-01-27T11:29:28.177Z,1338.88
2023-01-27T11:30:28.371Z,1280
2023-01-27T11:31:28.811Z,1280
2023-01-27T11:32:29.396Z,1419.52
2023-01-27T11:33:29.576Z,1419.52
2023-01-27T11:34:29.758Z,1419.52
2023-01-27T11:35:29.933Z,1419.52
2023-01-27T11:36:30.117Z,1419.52
2023-01-27T11:37:30.310Z,1419.52
2023-01-27T11:38:30.483Z,1419.52
2023-01-27T11:39:30.654Z,1419.52
2023-01-27T11:40:30.827Z,1419.52
2023-01-27T11:41:30.997Z,1259.52
2023-01-27T11:42:31.161Z,1259.52
2023-01-27T11:43:31.360Z,1259.52
2023-01-27T11:44:31.576Z,1259.52
2023-01-27T11:45:31.811Z,1259.52
2023-01-27T11:46:32.060Z,1259.52
2023-01-27T11:47:32.230Z,1259.52
2023-01-27T11:48:32.400Z,1399.04
2023-01-27T11:49:32.572Z,1399.04
2023-01-27T11:50:32.739Z,1399.04
2023-01-27T11:51:32.921Z,1539.84
2023-01-27T11:52:33.101Z,1539.84
2023-01-27T11:53:33.285Z,1539.84
2023-01-27T11:54:33.479Z,1539.84
2023-01-27T11:55:33.638Z,1379.84
2023-01-27T11:56:33.814Z,1379.84
2023-01-27T11:57:33.972Z,1379.84
2023-01-27T11:58:34.157Z,1379.84
2023-01-27T11:59:34.330Z,1379.84
2023-01-27T12:00:34.524Z,1379.84
2023-01-27T12:01:34.717Z,1519.36
2023-01-27T12:02:34.915Z,1519.36
2023-01-27T12:03:35.102Z,1679.36
2023-01-27T12:04:35.536Z,1679.36
2023-01-27T12:05:36.067Z,1679.36
2023-01-27T12:06:36.245Z,1679.36
2023-01-27T12:07:36.440Z,1679.36
2023-01-27T12:08:36.635Z,1679.36
2023-01-27T12:09:36.809Z,1679.36
2023-01-27T12:10:37.002Z,1679.36
2023-01-27T12:11:37.204Z,1679.36
2023-01-27T12:12:37.406Z,1498.88
2023-01-27T12:13:37.594Z,1498.88
2023-01-27T12:14:37.775Z,1498.88
2023-01-27T12:15:38.046Z,1498.88
2023-01-27T12:16:38.502Z,1498.88
2023-01-27T12:17:38.672Z,1498.88
2023-01-27T12:18:38.846Z,1498.88
2023-01-27T12:19:39.012Z,1498.88
2023-01-27T12:20:39.166Z,1498.88
2023-01-27T12:21:39.354Z,1498.88
2023-01-27T12:22:39.521Z,1419.52
2023-01-27T12:23:39.714Z,1419.52
2023-01-27T12:24:39.879Z,1419.52
2023-01-27T12:25:40.089Z,1419.52
2023-01-27T12:26:40.257Z,1419.52
2023-01-27T12:27:40.496Z,1419.52
2023-01-27T12:28:40.675Z,1259.52
2023-01-27T12:29:40.845Z,1259.52
2023-01-27T12:30:41.020Z,1259.52
2023-01-27T12:31:41.347Z,1259.52
2023-01-27T12:32:41.646Z,1259.52
2023-01-27T12:33:41.827Z,1259.52
2023-01-27T12:34:42.009Z,1399.04
2023-01-27T12:35:42.161Z,1399.04
2023-01-27T12:36:42.335Z,1539.84
2023-01-27T12:37:42.516Z,1539.84
2023-01-27T12:38:42.680Z,1699.84
2023-01-27T12:39:42.841Z,1699.84
2023-01-27T12:40:43.010Z,1879.04
2023-01-27T12:41:43.348Z,1879.04
2023-01-27T12:42:43.514Z,1679.36
2023-01-27T12:43:43.709Z,1498.88
2023-01-27T12:44:43.872Z,1319.68
2023-01-27T12:45:44.057Z,1319.68
2023-01-27T12:46:44.245Z,1179.52
2023-01-27T12:47:44.583Z,1059.84
2023-01-27T12:48:44.758Z,1059.84
2023-01-27T12:49:44.925Z,1059.84
2023-01-27T12:50:45.112Z,1059.84
2023-01-27T12:51:45.284Z,949.76
2023-01-27T12:52:45.472Z,949.76
2023-01-27T12:53:45.659Z,949.76
2023-01-27T12:54:45.845Z,1059.84
2023-01-27T12:55:46.030Z,1059.84
2023-01-27T12:56:46.208Z,1059.84
2023-01-27T12:57:46.396Z,1059.84
2023-01-27T12:58:46.589Z,1059.84
2023-01-27T12:59:46.765Z,1059.84
2023-01-27T13:00:46.983Z,1059.84
2023-01-27T13:01:47.294Z,1059.84
2023-01-27T13:02:47.505Z,949.76
2023-01-27T13:03:47.716Z,949.76
2023-01-27T13:04:47.981Z,949.76
2023-01-27T13:05:48.161Z,949.76
2023-01-27T13:06:48.330Z,949.76
2023-01-27T13:07:48.534Z,949.76
2023-01-27T13:08:48.703Z,949.76
2023-01-27T13:09:48.877Z,949.76
2023-01-27T13:10:49.054Z,949.76
2023-01-27T13:11:49.251Z,949.76
2023-01-27T13:12:49.417Z,919.68
2023-01-27T13:13:49.596Z,919.68
2023-01-27T13:14:49.818Z,919.68
2023-01-27T13:15:50.251Z,919.68
2023-01-27T13:16:52.795Z,919.68
2023-01-27T13:17:53.261Z,819.84
2023-01-27T13:18:53.495Z,819.84
2023-01-27T13:19:53.671Z,819.84
2023-01-27T13:20:53.836Z,729.6
2023-01-27T13:21:53.997Z,729.6
2023-01-27T13:22:54.206Z,649.92
2023-01-27T13:23:54.394Z,649.92
2023-01-27T13:24:54.751Z,579.84
2023-01-27T13:25:54.943Z,579.84
2023-01-27T13:26:55.126Z,520
2023-01-27T13:27:55.305Z,520
2023-01-27T13:28:55.484Z,459.84
2023-01-27T13:29:55.685Z,459.84
2023-01-27T13:30:55.894Z,409.92
2023-01-27T13:31:56.335Z,409.92
2023-01-27T13:32:56.968Z,360
2023-01-27T13:33:57.143Z,360
2023-01-27T13:34:57.333Z,360
2023-01-27T13:35:57.511Z,360
2023-01-27T13:36:57.673Z,360
2023-01-27T13:37:57.841Z,360
2023-01-27T13:38:58.042Z,360
2023-01-27T13:39:58.216Z,360
2023-01-27T13:40:58.406Z,360
2023-01-27T13:41:58.596Z,360
2023-01-27T13:42:58.776Z,360